createdAt,value
2019-05-30T00:00:26.553Z,78.80
2019-05-30T00:02:56.676Z,79.20
2019-05-30T00:05:25.805Z,79.30
2019-05-30T00:07:54.553Z,79.30
2019-05-30T00:10:23.226Z,79.70
2019-05-30T00:12:52.046Z,79.40
2019-05-30T00:15:20.735Z,80.10
2019-05-30T00:17:49.225Z,79.80
2019-05-30T00:20:17.891Z,80.50
2019-05-30T00:22:46.326Z,80.10
2019-05-30T00:25:14.776Z,80.10
2019-05-30T00:27:43.209Z,80.30
2019-05-30T00:30:23.813Z,80.20
2019-05-30T00:32:42.947Z,80.30
2019-05-30T00:35:11.524Z,80.00
2019-05-30T00:37:39.968Z,80.50
2019-05-30T00:40:08.646Z,80.50
2019-05-30T00:42:37.213Z,80.40
2019-05-30T00:45:19.547Z,80.70
2019-05-30T00:47:36.625Z,80.80
2019-05-30T00:50:08.640Z,80.30
2019-05-30T00:52:37.075Z,80.40
2019-05-30T00:55:07.016Z,80.50
2019-05-30T00:57:35.882Z,80.90
2019-05-30T01:00:07.301Z,80.70
2019-05-30T01:02:35.938Z,81.00
2019-05-30T01:05:07.928Z,81.60
2019-05-30T01:07:36.871Z,82.30
2019-05-30T01:10:07.544Z,82.40
2019-05-30T01:12:36.448Z,82.70
2019-05-30T01:15:07.565Z,82.90
2019-05-30T01:17:36.112Z,83.50
2019-05-30T01:20:07.513Z,82.70
2019-05-30T01:22:36.040Z,82.10
2019-05-30T01:25:08.362Z,82.00
2019-05-30T01:27:37.415Z,82.20
2019-05-30T01:30:08.051Z,82.60
2019-05-30T01:32:36.498Z,83.10
2019-05-30T01:35:05.826Z,83.30
2019-05-30T01:37:34.709Z,83.20
2019-05-30T01:40:04.247Z,83.20
2019-05-30T01:42:33.193Z,83.00
2019-05-30T01:45:02.475Z,82.90
2019-05-30T01:47:31.420Z,83.30
2019-05-30T01:50:00.331Z,83.70
2019-05-30T01:52:28.965Z,84.20
2019-05-30T01:54:58.495Z,84.40
2019-05-30T01:57:27.099Z,84.50
2019-05-30T01:59:55.808Z,84.40
2019-05-30T02:02:24.281Z,84.70
2019-05-30T02:04:52.722Z,85.10
2019-05-30T02:07:21.161Z,84.00
2019-05-30T02:09:49.850Z,84.10
2019-05-30T02:12:18.512Z,84.70
2019-05-30T02:14:47.193Z,85.00
2019-05-30T02:17:15.934Z,85.00
2019-05-30T02:19:44.374Z,85.10
2019-05-30T02:22:12.816Z,85.10
2019-05-30T02:24:41.263Z,84.90
2019-05-30T02:27:10.349Z,84.50
2019-05-30T02:29:38.899Z,84.80
2019-05-30T02:32:09.030Z,84.60
2019-05-30T02:34:37.477Z,85.50
2019-05-30T02:37:07.793Z,85.70
2019-05-30T02:39:36.260Z,85.60
2019-05-30T02:42:05.315Z,85.60
2019-05-30T02:44:33.843Z,86.00
2019-05-30T02:47:03.579Z,86.40
2019-05-30T02:49:32.750Z,86.70
2019-05-30T02:52:02.647Z,87.00
2019-05-30T02:54:31.762Z,87.50
2019-05-30T02:57:01.467Z,87.00
2019-05-30T02:59:29.981Z,86.90
2019-05-30T03:02:02.069Z,87.10
2019-05-30T03:04:28.560Z,87.50
2019-05-30T03:06:57.263Z,87.50
2019-05-30T03:09:25.693Z,87.60
2019-05-30T03:11:54.122Z,88.10
2019-05-30T03:14:23.244Z,87.80
2019-05-30T03:16:51.725Z,88.40
2019-05-30T03:19:20.458Z,88.50
2019-05-30T03:21:49.286Z,88.80
2019-05-30T03:24:17.709Z,88.40
2019-05-30T03:26:46.398Z,88.40
2019-05-30T03:29:14.828Z,88.40
2019-05-30T03:31:44.507Z,88.00
2019-05-30T03:34:22.133Z,87.60
2019-05-30T03:36:43.335Z,87.20
2019-05-30T03:39:13.104Z,87.60
2019-05-30T03:41:41.909Z,88.00
2019-05-30T03:44:11.531Z,88.30
2019-05-30T03:46:43.570Z,88.10
2019-05-30T03:49:15.184Z,87.70
2019-05-30T03:51:45.537Z,87.90
2019-05-30T03:54:16.067Z,87.30
2019-05-30T03:57:06.942Z,87.70
2019-05-30T03:59:38.959Z,87.40
2019-05-30T04:02:52.024Z,87.60
2019-05-30T04:05:11.256Z,87.80
2019-05-30T04:07:45.521Z,87.60
2019-05-30T04:10:15.820Z,87.30
2019-05-30T04:13:02.631Z,87.50
2019-05-30T04:15:35.677Z,87.40
2019-05-30T04:18:04.487Z,87.80
2019-05-30T04:20:33.274Z,88.10
2019-05-30T04:23:01.749Z,88.10
2019-05-30T04:25:30.577Z,87.70
2019-05-30T04:27:59.403Z,87.60
2019-05-30T04:30:28.270Z,87.90
2019-05-30T04:33:16.302Z,87.10
2019-05-30T04:35:27.399Z,86.90
2019-05-30T04:37:55.865Z,86.40
2019-05-30T04:40:24.280Z,86.30
2019-05-30T04:42:53.009Z,85.90
2019-05-30T04:45:21.696Z,84.40
2019-05-30T04:47:50.486Z,82.20
2019-05-30T04:50:20.745Z,79.80
2019-05-30T04:52:49.583Z,78.30
2019-05-30T04:55:20.507Z,77.00
2019-05-30T04:57:48.651Z,76.60
2019-05-30T05:00:19.317Z,75.10
2019-05-30T05:02:47.968Z,74.30
2019-05-30T05:05:23.827Z,74.00
2019-05-30T05:07:46.856Z,73.20
2019-05-30T05:10:16.035Z,72.10
2019-05-30T05:12:44.668Z,71.60
2019-05-30T05:15:14.303Z,72.30
2019-05-30T05:17:42.980Z,71.10
2019-05-30T05:20:13.042Z,71.40
2019-05-30T05:22:41.758Z,71.00
2019-05-30T05:25:11.226Z,68.70
2019-05-30T05:27:39.997Z,68.10
2019-05-30T05:30:09.254Z,67.30
2019-05-30T05:32:37.696Z,67.80
2019-05-30T05:35:10.357Z,66.60
2019-05-30T05:37:38.814Z,66.20
2019-05-30T05:40:07.673Z,63.90
2019-05-30T05:42:36.136Z,65.20
2019-05-30T05:45:09.154Z,62.40
2019-05-30T05:47:37.841Z,62.50
2019-05-30T05:50:06.727Z,60.20
2019-05-30T05:52:35.163Z,59.70
2019-05-30T05:55:04.521Z,59.60
2019-05-30T05:57:32.958Z,58.80
2019-05-30T06:00:01.381Z,58.30
2019-05-30T06:02:29.833Z,59.10
2019-05-30T06:04:58.263Z,59.20
2019-05-30T06:07:27.061Z,58.00
2019-05-30T06:09:55.475Z,56.30
2019-05-30T06:12:24.220Z,56.30
2019-05-30T06:14:52.665Z,57.60
2019-05-30T06:17:21.441Z,57.10
2019-05-30T06:19:49.869Z,56.50
2019-05-30T06:22:19.308Z,55.10
2019-05-30T06:24:47.916Z,54.50
2019-05-30T06:27:16.359Z,53.10
2019-05-30T06:29:45.043Z,54.10
2019-05-30T06:32:13.767Z,53.70
2019-05-30T06:34:42.201Z,51.40
2019-05-30T06:37:12.193Z,52.90
2019-05-30T06:39:40.812Z,53.50
2019-05-30T06:42:09.268Z,50.60
2019-05-30T06:44:37.683Z,50.80
2019-05-30T06:47:06.172Z,50.10
2019-05-30T06:49:34.727Z,50.60
2019-05-30T06:52:03.757Z,49.30
2019-05-30T06:54:32.218Z,48.00
2019-05-30T06:57:00.733Z,48.70
2019-05-30T06:59:29.744Z,48.10
2019-05-30T07:01:58.637Z,48.10
2019-05-30T07:04:28.333Z,48.40
2019-05-30T07:06:57.604Z,47.40
2019-05-30T07:09:26.792Z,46.00
2019-05-30T07:11:55.432Z,45.50
2019-05-30T07:14:25.111Z,45.00
2019-05-30T07:16:53.774Z,46.00
2019-05-30T07:19:23.234Z,44.40
2019-05-30T07:21:52.220Z,44.50
2019-05-30T07:24:20.641Z,44.70
2019-05-30T07:26:49.338Z,44.30
2019-05-30T07:29:17.934Z,44.30
2019-05-30T07:31:46.365Z,44.40
2019-05-30T07:34:15.083Z,43.20
2019-05-30T07:36:43.756Z,42.20
2019-05-30T07:39:12.455Z,43.10
2019-05-30T07:41:41.160Z,42.00
2019-05-30T07:44:09.604Z,43.80
2019-05-30T07:46:38.288Z,42.00
2019-05-30T07:49:06.988Z,38.90
2019-05-30T07:51:35.659Z,41.10
2019-05-30T07:54:04.282Z,40.70
2019-05-30T07:56:33.471Z,39.90
2019-05-30T07:59:02.060Z,40.20
2019-05-30T08:01:30.574Z,38.70
2019-05-30T08:03:59.267Z,38.20
2019-05-30T08:06:27.940Z,36.80
2019-05-30T08:08:56.402Z,38.00
2019-05-30T08:11:24.838Z,38.20
2019-05-30T08:13:53.284Z,37.40
2019-05-30T08:16:21.982Z,36.80
2019-05-30T08:18:50.445Z,36.00
2019-05-30T08:21:19.196Z,37.30
2019-05-30T08:23:47.892Z,36.50
2019-05-30T08:26:18.305Z,40.20
2019-05-30T08:28:46.568Z,34.90
2019-05-30T08:31:14.996Z,37.10
2019-05-30T08:34:09.052Z,33.10
2019-05-30T08:36:37.476Z,32.70
2019-05-30T08:39:07.828Z,33.70
2019-05-30T08:41:37.367Z,36.40
2019-05-30T08:44:06.208Z,36.80
2019-05-30T08:46:35.746Z,34.20
2019-05-30T08:49:04.439Z,32.90
2019-05-30T08:51:34.088Z,30.30
2019-05-30T08:54:02.648Z,32.20
2019-05-30T08:56:32.708Z,33.40
2019-05-30T08:59:01.250Z,31.60
2019-05-30T09:01:29.744Z,30.60
2019-05-30T09:03:58.194Z,30.30
2019-05-30T09:06:26.863Z,29.90
2019-05-30T09:08:55.371Z,28.20
2019-05-30T09:11:24.042Z,31.70
2019-05-30T09:13:52.495Z,32.40
2019-05-30T09:16:20.919Z,31.00
2019-05-30T09:18:49.376Z,30.00
2019-05-30T09:21:17.797Z,29.50
2019-05-30T09:23:46.880Z,30.60
2019-05-30T09:26:16.378Z,30.50
2019-05-30T09:28:46.133Z,27.70
2019-05-30T09:31:14.990Z,28.00
2019-05-30T09:33:44.527Z,33.80
2019-05-30T09:36:14.090Z,29.30
2019-05-30T09:38:43.545Z,29.70
2019-05-30T09:41:12.173Z,29.50
2019-05-30T09:43:41.603Z,27.50
2019-05-30T09:46:11.213Z,27.60
2019-05-30T09:48:40.205Z,30.20
2019-05-30T09:51:09.870Z,27.70
2019-05-30T09:53:38.614Z,30.50
2019-05-30T09:56:07.610Z,32.90
2019-05-30T09:58:36.033Z,26.80
2019-05-30T10:01:04.924Z,28.90
2019-05-30T10:03:33.348Z,27.80
2019-05-30T10:06:02.162Z,26.90
2019-05-30T10:08:30.572Z,28.30
2019-05-30T10:10:59.333Z,26.70
2019-05-30T10:13:27.759Z,29.20
2019-05-30T10:15:56.748Z,28.90
2019-05-30T10:18:25.675Z,28.60
2019-05-30T10:20:54.559Z,28.30
2019-05-30T10:23:22.992Z,28.30
2019-05-30T10:25:51.445Z,28.70
2019-05-30T10:28:19.869Z,27.10
2019-05-30T10:30:53.674Z,27.20
2019-05-30T10:33:20.142Z,28.50
2019-05-30T10:35:49.186Z,30.00
2019-05-30T10:38:20.134Z,28.60
2019-05-30T10:40:49.305Z,28.90
2019-05-30T10:43:19.397Z,27.40
2019-05-30T10:45:48.223Z,26.30
2019-05-30T10:48:20.779Z,27.10
2019-05-30T10:50:48.662Z,29.60
2019-05-30T10:53:17.119Z,26.60
2019-05-30T10:55:46.924Z,28.30
2019-05-30T10:58:16.386Z,28.30
2019-05-30T11:00:57.779Z,28.30
2019-05-30T11:03:27.800Z,27.30
2019-05-30T11:06:01.912Z,26.10
2019-05-30T11:08:30.664Z,29.50
2019-05-30T11:10:59.360Z,30.10
2019-05-30T11:13:27.788Z,29.50
2019-05-30T11:15:57.341Z,30.30
2019-05-30T11:18:25.951Z,28.50
2019-05-30T11:20:54.392Z,30.00
2019-05-30T11:23:22.825Z,27.90
2019-05-30T11:25:52.509Z,30.20
2019-05-30T11:28:21.644Z,28.50
2019-05-30T11:30:50.639Z,28.50
2019-05-30T11:33:19.277Z,26.40
2019-05-30T11:35:48.876Z,28.20
2019-05-30T11:38:17.802Z,27.20
2019-05-30T11:40:46.506Z,27.50
2019-05-30T11:43:14.943Z,26.80
2019-05-30T11:45:43.382Z,26.30
2019-05-30T11:48:12.142Z,28.60
2019-05-30T11:50:40.578Z,29.40
2019-05-30T11:53:09.251Z,25.90
2019-05-30T11:55:37.738Z,25.30
2019-05-30T11:58:06.587Z,29.10
2019-05-30T12:00:35.012Z,28.40
2019-05-30T12:03:03.448Z,29.40
2019-05-30T12:05:31.870Z,29.20
2019-05-30T12:08:00.950Z,28.20
2019-05-30T12:10:30.203Z,29.30
2019-05-30T12:12:59.477Z,27.40
2019-05-30T12:15:28.283Z,27.60
2019-05-30T12:17:57.449Z,25.30
2019-05-30T12:20:27.717Z,26.70
2019-05-30T12:22:56.174Z,25.30
2019-05-30T12:25:24.626Z,27.90
2019-05-30T12:27:53.978Z,27.70
2019-05-30T12:30:22.929Z,27.80
2019-05-30T12:32:52.446Z,28.10
2019-05-30T12:35:21.834Z,26.30
2019-05-30T12:37:56.168Z,28.70
2019-05-30T12:40:20.951Z,26.80
2019-05-30T12:42:49.736Z,27.70
2019-05-30T12:45:19.031Z,27.40
2019-05-30T12:47:47.463Z,27.30
2019-05-30T12:50:17.000Z,27.30
2019-05-30T12:52:45.907Z,27.40
2019-05-30T12:55:15.075Z,27.60
2019-05-30T12:57:43.805Z,26.90
2019-05-30T13:00:18.885Z,27.30
2019-05-30T13:02:45.585Z,28.80
2019-05-30T13:05:14.487Z,28.40
2019-05-30T13:07:43.177Z,28.00
2019-05-30T13:10:13.373Z,26.70
2019-05-30T13:12:41.788Z,29.10
2019-05-30T13:15:10.947Z,26.50
2019-05-30T13:17:39.387Z,28.60
2019-05-30T13:20:08.848Z,27.40
2019-05-30T13:22:37.468Z,27.50
2019-05-30T13:25:09.863Z,27.10
2019-05-30T13:27:38.725Z,25.60
2019-05-30T13:30:11.212Z,27.50
2019-05-30T13:32:39.884Z,29.50
2019-05-30T13:35:08.756Z,29.00
2019-05-30T13:37:37.627Z,26.60
2019-05-30T13:40:23.387Z,30.00
2019-05-30T13:42:37.980Z,27.30
2019-05-30T13:45:08.352Z,27.00
2019-05-30T13:47:37.759Z,26.90
2019-05-30T13:50:13.003Z,27.30
2019-05-30T13:52:39.662Z,28.90
2019-05-30T13:55:10.127Z,29.20
2019-05-30T13:57:39.047Z,26.90
2019-05-30T14:00:10.431Z,29.40
2019-05-30T14:02:39.742Z,28.00
2019-05-30T14:05:08.808Z,28.20
2019-05-30T14:07:37.252Z,28.00
2019-05-30T14:10:10.522Z,28.40
2019-05-30T14:12:39.795Z,28.00
2019-05-30T14:15:14.109Z,29.80
2019-05-30T14:17:41.084Z,28.00
2019-05-30T14:20:11.585Z,29.50
2019-05-30T14:22:40.324Z,29.60
2019-05-30T14:25:09.739Z,28.90
2019-05-30T14:27:38.764Z,28.80
2019-05-30T14:30:08.970Z,27.90
2019-05-30T14:32:37.633Z,28.30
2019-05-30T14:35:11.757Z,28.50
2019-05-30T14:37:39.967Z,29.50
2019-05-30T14:40:11.010Z,30.20
2019-05-30T14:42:39.684Z,29.90
2019-05-30T14:45:10.379Z,30.10
2019-05-30T14:47:39.625Z,29.30
2019-05-30T14:50:10.909Z,30.30
2019-05-30T14:52:39.775Z,29.50
2019-05-30T14:55:10.960Z,29.80
2019-05-30T14:57:40.093Z,29.10
2019-05-30T15:00:11.305Z,28.90
2019-05-30T15:02:39.852Z,28.50
2019-05-30T15:05:09.370Z,29.40
2019-05-30T15:07:38.235Z,29.40
2019-05-30T15:10:10.633Z,29.20
2019-05-30T15:12:39.458Z,29.80
2019-05-30T15:15:12.384Z,30.80
2019-05-30T15:17:38.986Z,29.10
2019-05-30T15:20:09.999Z,30.10
2019-05-30T15:22:38.135Z,30.00
2019-05-30T15:25:08.019Z,31.20
2019-05-30T15:27:37.133Z,30.70
2019-05-30T15:30:10.413Z,32.20
2019-05-30T15:32:39.098Z,32.10
2019-05-30T15:35:08.772Z,32.50
2019-05-30T15:37:40.581Z,31.90
2019-05-30T15:40:10.834Z,30.30
2019-05-30T15:42:39.472Z,30.00
2019-05-30T15:45:09.927Z,30.20
2019-05-30T15:47:38.997Z,31.80
2019-05-30T15:50:10.548Z,32.40
2019-05-30T15:52:41.325Z,31.70
2019-05-30T15:55:11.394Z,32.00
2019-05-30T15:57:40.390Z,30.40
2019-05-30T16:00:12.139Z,32.70
2019-05-30T16:02:40.998Z,31.90
2019-05-30T16:05:10.633Z,31.40
2019-05-30T16:07:39.263Z,32.30
2019-05-30T16:10:08.911Z,32.60
2019-05-30T16:12:37.366Z,33.20
2019-05-30T16:15:09.123Z,33.10
2019-05-30T16:17:37.558Z,32.70
2019-05-30T16:20:06.769Z,31.80
2019-05-30T16:22:35.282Z,32.20
2019-05-30T16:25:05.707Z,33.20
2019-05-30T16:27:34.450Z,33.60
2019-05-30T16:30:03.556Z,33.00
2019-05-30T16:32:32.196Z,32.50
2019-05-30T16:35:00.619Z,32.50
2019-05-30T16:37:29.060Z,32.60
2019-05-30T16:40:05.950Z,32.00
2019-05-30T16:42:28.197Z,33.70
2019-05-30T16:44:56.620Z,33.30
2019-05-30T16:47:25.063Z,33.20
2019-05-30T16:49:53.538Z,33.50
2019-05-30T16:52:23.133Z,33.80
2019-05-30T16:54:51.929Z,35.10
2019-05-30T16:57:20.697Z,35.20
2019-05-30T16:59:50.122Z,34.70
2019-05-30T17:02:18.856Z,35.00
2019-05-30T17:04:47.476Z,34.80
2019-05-30T17:07:16.920Z,34.90
2019-05-30T17:09:45.434Z,35.80
2019-05-30T17:12:13.852Z,35.60
2019-05-30T17:14:42.636Z,35.40
2019-05-30T17:17:11.068Z,35.80
2019-05-30T17:19:39.868Z,35.30
2019-05-30T17:22:08.345Z,35.60
2019-05-30T17:24:36.800Z,36.20
2019-05-30T17:27:05.220Z,36.70
2019-05-30T17:29:34.048Z,36.40
2019-05-30T17:32:02.534Z,37.30
2019-05-30T17:34:30.988Z,37.80
2019-05-30T17:37:00.497Z,37.30
2019-05-30T17:39:28.994Z,37.70
2019-05-30T17:41:57.450Z,37.80
2019-05-30T17:44:27.110Z,39.00
2019-05-30T17:46:55.724Z,39.30
2019-05-30T17:49:24.182Z,38.80
2019-05-30T17:51:52.636Z,39.70
2019-05-30T17:54:21.751Z,39.50
2019-05-30T17:56:50.392Z,39.90
2019-05-30T17:59:20.054Z,40.20
2019-05-30T18:01:48.635Z,40.70
2019-05-30T18:04:17.088Z,40.10
2019-05-30T18:06:45.522Z,40.80
2019-05-30T18:09:14.237Z,41.10
2019-05-30T18:11:42.655Z,41.30
2019-05-30T18:14:11.096Z,41.50
2019-05-30T18:16:39.994Z,41.60
2019-05-30T18:19:08.439Z,41.60
2019-05-30T18:21:36.859Z,41.60
2019-05-30T18:24:06.351Z,42.00
2019-05-30T18:26:34.776Z,42.30
2019-05-30T18:29:03.234Z,42.10
2019-05-30T18:31:32.358Z,41.90
2019-05-30T18:34:01.191Z,42.70
2019-05-30T18:36:30.515Z,42.80
2019-05-30T18:38:59.134Z,42.80
2019-05-30T18:41:28.707Z,43.60
2019-05-30T18:43:57.303Z,43.60
2019-05-30T18:46:27.033Z,44.30
2019-05-30T18:48:55.659Z,46.00
2019-05-30T18:51:24.123Z,47.00
2019-05-30T18:53:52.601Z,48.50
2019-05-30T18:56:21.037Z,49.70
2019-05-30T18:58:49.789Z,50.60
2019-05-30T19:01:18.213Z,51.40
2019-05-30T19:03:46.674Z,52.10
2019-05-30T19:06:15.428Z,52.10
2019-05-30T19:08:44.331Z,52.90
2019-05-30T19:11:26.615Z,53.00
2019-05-30T19:13:42.932Z,53.40
2019-05-30T19:16:11.347Z,53.20
2019-05-30T19:18:39.787Z,53.50
2019-05-30T19:21:08.263Z,53.70
2019-05-30T19:23:39.692Z,53.80
2019-05-30T19:26:06.880Z,53.90
2019-05-30T19:28:35.317Z,54.60
2019-05-30T19:31:03.769Z,55.20
2019-05-30T19:33:32.917Z,54.80
2019-05-30T19:36:01.708Z,54.90
2019-05-30T19:38:31.267Z,55.20
2019-05-30T19:41:00.301Z,55.40
2019-05-30T19:43:29.814Z,55.20
2019-05-30T19:45:58.700Z,54.90
2019-05-30T19:48:28.268Z,55.50
2019-05-30T19:50:56.809Z,55.40
2019-05-30T19:53:25.229Z,55.30
2019-05-30T19:55:53.671Z,55.70
2019-05-30T19:58:22.135Z,56.10
2019-05-30T20:00:58.449Z,56.30
2019-05-30T20:03:35.802Z,57.10
2019-05-30T20:05:50.954Z,56.40
2019-05-30T20:08:19.372Z,56.70
2019-05-30T20:10:47.813Z,56.80
2019-05-30T20:13:16.236Z,57.00
2019-05-30T20:15:44.679Z,56.80
2019-05-30T20:18:13.153Z,56.80
2019-05-30T20:20:53.864Z,57.30
2019-05-30T20:23:12.005Z,57.30
2019-05-30T20:25:44.043Z,57.10
2019-05-30T20:28:10.594Z,57.90
2019-05-30T20:30:39.195Z,57.40
2019-05-30T20:33:07.911Z,58.00
2019-05-30T20:35:38.453Z,58.20
2019-05-30T20:38:06.754Z,57.90
2019-05-30T20:40:35.220Z,58.20
2019-05-30T20:43:03.640Z,58.90
2019-05-30T20:45:32.081Z,59.10
2019-05-30T20:48:00.512Z,59.40
2019-05-30T20:50:28.943Z,59.80
2019-05-30T20:52:57.372Z,59.50
2019-05-30T20:55:25.807Z,59.40
2019-05-30T20:57:54.247Z,59.80
2019-05-30T21:00:26.008Z,60.20
2019-05-30T21:02:54.700Z,60.70
2019-05-30T21:05:23.453Z,61.80
2019-05-30T21:07:52.769Z,61.80
2019-05-30T21:10:21.204Z,62.30
2019-05-30T21:12:51.208Z,62.00
2019-05-30T21:15:19.708Z,62.40
2019-05-30T21:17:48.159Z,62.70
2019-05-30T21:20:16.725Z,63.10
2019-05-30T21:22:46.694Z,64.10
2019-05-30T21:25:15.481Z,63.30
2019-05-30T21:27:45.186Z,63.80
2019-05-30T21:30:14.510Z,64.80
2019-05-30T21:32:44.394Z,64.70
2019-05-30T21:35:13.884Z,64.10
2019-05-30T21:37:43.648Z,64.50
2019-05-30T21:40:12.449Z,64.90
2019-05-30T21:42:58.197Z,65.40
2019-05-30T21:45:11.586Z,65.20
2019-05-30T21:47:40.761Z,65.30
2019-05-30T21:50:09.867Z,64.80
2019-05-30T21:52:39.384Z,65.20
2019-05-30T21:55:08.148Z,66.00
2019-05-30T21:57:36.587Z,66.00
2019-05-30T22:00:13.829Z,66.40
2019-05-30T22:02:46.554Z,67.00
2019-05-30T22:05:15.219Z,67.00
2019-05-30T22:07:44.970Z,66.70
2019-05-30T22:10:13.933Z,66.30
2019-05-30T22:12:43.371Z,67.10
2019-05-30T22:15:12.066Z,68.30
2019-05-30T22:17:41.630Z,68.40
2019-05-30T22:20:10.782Z,67.60
2019-05-30T22:22:39.206Z,66.40
2019-05-30T22:25:07.779Z,67.20
2019-05-30T22:27:36.211Z,67.60
2019-05-30T22:30:06.866Z,68.40
2019-05-30T22:32:35.286Z,68.00
2019-05-30T22:35:06.000Z,68.30
2019-05-30T22:37:34.681Z,68.20
2019-05-30T22:40:05.130Z,67.90
2019-05-30T22:42:33.557Z,68.70
2019-05-30T22:45:02.019Z,69.80
2019-05-30T22:47:30.510Z,70.20
2019-05-30T22:49:58.944Z,70.10
2019-05-30T22:52:27.368Z,70.20
2019-05-30T22:54:55.811Z,70.90
2019-05-30T22:57:24.243Z,71.50
2019-05-30T22:59:53.026Z,72.50
2019-05-30T23:02:21.876Z,73.30
2019-05-30T23:04:50.292Z,73.90
2019-05-30T23:07:19.005Z,74.10
2019-05-30T23:09:47.597Z,74.70
2019-05-30T23:12:16.322Z,74.30
2019-05-30T23:14:45.793Z,75.30
2019-05-30T23:17:14.399Z,75.90
2019-05-30T23:19:42.816Z,76.00
2019-05-30T23:22:11.506Z,75.70
2019-05-30T23:24:40.200Z,75.80
2019-05-30T23:27:08.904Z,76.50
2019-05-30T23:29:37.323Z,75.90
2019-05-30T23:32:05.775Z,75.80
2019-05-30T23:34:34.199Z,76.30
2019-05-30T23:37:02.880Z,76.20
2019-05-30T23:39:31.306Z,76.60
2019-05-30T23:41:59.753Z,75.00
2019-05-30T23:44:28.441Z,74.80
2019-05-30T23:46:57.773Z,75.40
2019-05-30T23:49:26.689Z,75.70
2019-05-30T23:51:56.198Z,76.30
2019-05-30T23:54:24.676Z,76.80
2019-05-30T23:56:54.754Z,77.80
2019-05-30T23:59:23.255Z,76.80
